sensor_id;sensor_type;location;lat;lon;timestamp;pressure;altitude;pressure_sealevel;temperature;humidity
67931;BME280;63902;52.000;5.954;2024-01-16T00:00:15;100451.16;;;-0.24;100.00
67931;BME280;63902;52.000;5.954;2024-01-16T00:01:16;100449.41;;;-0.23;100.00
67931;BME280;63902;52.000;5.954;2024-01-16T00:02:16;100452.03;;;-0.21;100.00
67931;BME280;63902;52.000;5.954;2024-01-16T00:03:17;100435.53;;;-0.31;100.00
67931;BME280;63902;52.000;5.954;2024-01-16T00:04:17;100446.81;;;-0.21;100.00
67931;BME280;63902;52.000;5.954;2024-01-16T00:05:18;100448.56;;;-0.24;100.00
67931;BME280;63902;52.000;5.954;2024-01-16T00:06:18;100447.69;;;-0.24;100.00
67931;BME280;63902;52.000;5.954;2024-01-16T00:07:19;100449.44;;;-0.26;100.00
67931;BME280;63902;52.000;5.954;2024-01-16T00:08:19;100454.66;;;-0.28;100.00
67931;BME280;63902;52.000;5.954;2024-01-16T00:09:20;100452.03;;;-0.29;100.00
67931;BME280;63902;52.000;5.954;2024-01-16T00:10:22;100460.75;;;-0.30;100.00
67931;BME280;63902;52.000;5.954;2024-01-16T00:11:22;100450.31;;;-0.35;100.00
67931;BME280;63902;52.000;5.954;2024-01-16T00:12:23;100460.75;;;-0.32;100.00
67931;BME280;63902;52.000;5.954;2024-01-16T00:13:23;100456.41;;;-0.33;100.00
67931;BME280;63902;52.000;5.954;2024-01-16T00:14:24;100428.66;;;-0.55;100.00
67931;BME280;63902;52.000;5.954;2024-01-16T00:15:24;100455.56;;;-0.36;100.00
67931;BME280;63902;52.000;5.954;2024-01-16T00:16:25;100462.47;;;-0.37;100.00
67931;BME280;63902;52.000;5.954;2024-01-16T00:17:25;100447.75;;;-0.44;100.00
67931;BME280;63902;52.000;5.954;2024-01-16T00:18:26;100450.34;;;-0.38;100.00
67931;BME280;63902;52.000;5.954;2024-01-16T00:19:26;100447.75;;;-0.44;100.00
67931;BME280;63902;52.000;5.954;2024-01-16T00:20:26;100452.94;;;-0.39;100.00
67931;BME280;63902;52.000;5.954;2024-01-16T00:21:27;100427.78;;;-0.59;100.00
67931;BME280;63902;52.000;5.954;2024-01-16T00:22:27;100459.03;;;-0.40;100.00
67931;BME280;63902;52.000;5.954;2024-01-16T00:23:28;100446.00;;;-0.42;100.00
67931;BME280;63902;52.000;5.954;2024-01-16T00:24:28;100445.13;;;-0.41;100.00
67931;BME280;63902;52.000;5.954;2024-01-16T00:25:30;100452.06;;;-0.40;100.00
67931;BME280;63902;52.000;5.954;2024-01-16T00:26:31;100452.06;;;-0.40;100.00
67931;BME280;63902;52.000;5.954;2024-01-16T00:27:31;100427.81;;;-0.56;100.00
67931;BME280;63902;52.000;5.954;2024-01-16T00:28:32;100453.81;;;-0.39;100.00
67931;BME280;63902;52.000;5.954;2024-01-16T00:29:32;100452.94;;;-0.39;100.00
67931;BME280;63902;52.000;5.954;2024-01-16T00:30:33;100442.53;;;-0.46;100.00
67931;BME280;63902;52.000;5.954;2024-01-16T00:31:33;100440.81;;;-0.53;100.00
67931;BME280;63902;52.000;5.954;2024-01-16T00:32:34;100459.03;;;-0.40;100.00
67931;BME280;63902;52.000;5.954;2024-01-16T00:33:34;100439.97;;;-0.53;100.00
67931;BME280;63902;52.000;5.954;2024-01-16T00:34:34;100459.91;;;-0.41;100.00
67931;BME280;63902;52.000;5.954;2024-01-16T00:35:35;100466.84;;;-0.42;100.00
67931;BME280;63902;52.000;5.954;2024-01-16T00:36:35;100467.72;;;-0.41;100.00
67931;BME280;63902;52.000;5.954;2024-01-16T00:37:36;100462.50;;;-0.41;100.00
67931;BME280;63902;52.000;5.954;2024-01-16T00:38:37;100450.38;;;-0.50;100.00
67931;BME280;63902;52.000;5.954;2024-01-16T00:39:37;100439.09;;;-0.55;100.00
67931;BME280;63902;52.000;5.954;2024-01-16T00:40:39;100466.00;;;-0.44;100.00
67931;BME280;63902;52.000;5.954;2024-01-16T00:41:39;100460.75;;;-0.42;100.00
67931;BME280;63902;52.000;5.954;2024-01-16T00:42:40;100455.56;;;-0.47;100.00
67931;BME280;63902;52.000;5.954;2024-01-16T00:43:40;100466.84;;;-0.40;100.00
67931;BME280;63902;52.000;5.954;2024-01-16T00:44:41;100433.00;;;-0.59;100.00
67931;BME280;63902;52.000;5.954;2024-01-16T00:45:41;100465.97;;;-0.41;100.00
67931;BME280;63902;52.000;5.954;2024-01-16T00:46:42;100466.84;;;-0.40;100.00
67931;BME280;63902;52.000;5.954;2024-01-16T00:47:42;100461.63;;;-0.45;100.00
67931;BME280;63902;52.000;5.954;2024-01-16T00:48:43;100474.66;;;-0.40;100.00
67931;BME280;63902;52.000;5.954;2024-01-16T00:49:43;100468.59;;;-0.44;100.00
67931;BME280;63902;52.000;5.954;2024-01-16T00:50:43;100476.41;;;-0.41;100.00
67931;BME280;63902;52.000;5.954;2024-01-16T00:51:44;100481.63;;;-0.44;100.00
67931;BME280;63902;52.000;5.954;2024-01-16T00:52:44;100489.41;;;-0.39;100.00
67931;BME280;63902;52.000;5.954;2024-01-16T00:53:45;100496.38;;;-0.38;100.00
67931;BME280;63902;52.000;5.954;2024-01-16T00:54:45;100483.34;;;-0.40;100.00
67931;BME280;63902;52.000;5.954;2024-01-16T00:55:47;100490.28;;;-0.36;100.00
67931;BME280;63902;52.000;5.954;2024-01-16T00:56:48;100489.44;;;-0.36;100.00
67931;BME280;63902;52.000;5.954;2024-01-16T00:57:48;100485.09;;;-0.36;100.00
67931;BME280;63902;52.000;5.954;2024-01-16T00:58:48;100490.28;;;-0.36;100.00
67931;BME280;63902;52.000;5.954;2024-01-16T00:59:49;100488.56;;;-0.35;100.00
67931;BME280;63902;52.000;5.954;2024-01-16T01:00:50;100488.53;;;-0.34;100.00
67931;BME280;63902;52.000;5.954;2024-01-16T01:01:50;100481.63;;;-0.41;100.00
67931;BME280;63902;52.000;5.954;2024-01-16T01:02:51;100498.09;;;-0.34;100.00
67931;BME280;63902;52.000;5.954;2024-01-16T01:03:51;100469.44;;;-0.48;100.00
67931;BME280;63902;52.000;5.954;2024-01-16T01:04:52;100491.16;;;-0.38;100.00
67931;BME280;63902;52.000;5.954;2024-01-16T01:05:52;100497.22;;;-0.32;100.00
67931;BME280;63902;52.000;5.954;2024-01-16T01:06:52;100492.00;;;-0.32;100.00
67931;BME280;63902;52.000;5.954;2024-01-16T01:07:53;100494.63;;;-0.32;100.00
67931;BME280;63902;52.000;5.954;2024-01-16T01:08:53;100496.38;;;-0.31;100.00
67931;BME280;63902;52.000;5.954;2024-01-16T01:09:54;100493.75;;;-0.31;100.00
67931;BME280;63902;52.000;5.954;2024-01-16T01:10:56;100485.09;;;-0.36;100.00
67931;BME280;63902;52.000;5.954;2024-01-16T01:11:56;100492.00;;;-0.32;100.00
67931;BME280;63902;52.000;5.954;2024-01-16T01:12:57;100498.09;;;-0.33;100.00
67931;BME280;63902;52.000;5.954;2024-01-16T01:13:57;100497.25;;;-0.33;100.00
67931;BME280;63902;52.000;5.954;2024-01-16T01:14:58;100494.63;;;-0.33;100.00
67931;BME280;63902;52.000;5.954;2024-01-16T01:15:58;100497.25;;;-0.33;100.00
67931;BME280;63902;52.000;5.954;2024-01-16T01:16:59;100489.41;;;-0.38;100.00
67931;BME280;63902;52.000;5.954;2024-01-16T01:17:59;100492.91;;;-0.36;100.00
67931;BME280;63902;52.000;5.954;2024-01-16T01:19:00;100476.41;;;-0.44;100.00
67931;BME280;63902;52.000;5.954;2024-01-16T01:20:00;100494.63;;;-0.36;100.00
67931;BME280;63902;52.000;5.954;2024-01-16T01:21:01;100479.03;;;-0.47;100.00
67931;BME280;63902;52.000;5.954;2024-01-16T01:22:01;100491.16;;;-0.41;100.00
67931;BME280;63902;52.000;5.954;2024-01-16T01:23:02;100472.09;;;-0.56;100.00
67931;BME280;63902;52.000;5.954;2024-01-16T01:24:02;100496.38;;;-0.40;100.00
67931;BME280;63902;52.000;5.954;2024-01-16T01:25:04;100495.50;;;-0.40;100.00
67931;BME280;63902;52.000;5.954;2024-01-16T01:26:06;100493.75;;;-0.40;100.00
67931;BME280;63902;52.000;5.954;2024-01-16T01:27:06;100498.97;;;-0.35;100.00
67931;BME280;63902;52.000;5.954;2024-01-16T01:28:07;100494.63;;;-0.36;100.00
67931;BME280;63902;52.000;5.954;2024-01-16T01:29:07;100500.72;;;-0.36;100.00
67931;BME280;63902;52.000;5.954;2024-01-16T01:30:08;100497.25;;;-0.38;100.00
67931;BME280;63902;52.000;5.954;2024-01-16T01:31:09;100496.38;;;-0.38;100.00
67931;BME280;63902;52.000;5.954;2024-01-16T01:32:10;100492.03;;;-0.38;100.00
67931;BME280;63902;52.000;5.954;2024-01-16T01:33:10;100490.31;;;-0.39;100.00
67931;BME280;63902;52.000;5.954;2024-01-16T01:34:11;100498.13;;;-0.39;100.00
67931;BME280;63902;52.000;5.954;2024-01-16T01:35:12;100495.53;;;-0.42;100.00
67931;BME280;63902;52.000;5.954;2024-01-16T01:36:12;100501.59;;;-0.41;100.00
67931;BME280;63902;52.000;5.954;2024-01-16T01:37:13;100471.19;;;-0.56;100.00
67931;BME280;63902;52.000;5.954;2024-01-16T01:38:13;100502.47;;;-0.44;100.00
67931;BME280;63902;52.000;5.954;2024-01-16T01:39:13;100497.25;;;-0.47;100.00
67931;BME280;63902;52.000;5.954;2024-01-16T01:40:14;100489.47;;;-0.53;100.00
67931;BME280;63902;52.000;5.954;2024-01-16T01:41:16;100505.06;;;-0.49;100.00
67931;BME280;63902;52.000;5.954;2024-01-16T01:42:17;100493.78;;;-0.49;100.00
67931;BME280;63902;52.000;5.954;2024-01-16T01:43:18;100506.81;;;-0.49;100.00
67931;BME280;63902;52.000;5.954;2024-01-16T01:44:19;100506.81;;;-0.49;100.00
67931;BME280;63902;52.000;5.954;2024-01-16T01:45:19;100492.91;;;-0.50;100.00
67931;BME280;63902;52.000;5.954;2024-01-16T01:46:20;100486.81;;;-0.56;100.00
67931;BME280;63902;52.000;5.954;2024-01-16T01:47:21;100490.31;;;-0.53;100.00
67931;BME280;63902;52.000;5.954;2024-01-16T01:48:22;100488.56;;;-0.52;100.00
67931;BME280;63902;52.000;5.954;2024-01-16T01:49:23;100490.31;;;-0.51;100.00
67931;BME280;63902;52.000;5.954;2024-01-16T01:50:25;100492.91;;;-0.54;100.00
67931;BME280;63902;52.000;5.954;2024-01-16T01:51:25;100498.13;;;-0.56;100.00
67931;BME280;63902;52.000;5.954;2024-01-16T01:52:26;100495.50;;;-0.54;100.00
67931;BME280;63902;52.000;5.954;2024-01-16T01:53:27;100476.44;;;-0.65;100.00
67931;BME280;63902;52.000;5.954;2024-01-16T01:54:28;100499.00;;;-0.58;100.00
67931;BME280;63902;52.000;5.954;2024-01-16T01:55:29;100498.13;;;-0.57;100.00
67931;BME280;63902;52.000;5.954;2024-01-16T01:56:31;100499.00;;;-0.58;100.00
67931;BME280;63902;52.000;5.954;2024-01-16T01:57:33;100495.50;;;-0.59;100.00
67931;BME280;63902;52.000;5.954;2024-01-16T01:58:33;100505.06;;;-0.59;100.00
67931;BME280;63902;52.000;5.954;2024-01-16T01:59:34;100501.63;;;-0.58;100.00
67931;BME280;63902;52.000;5.954;2024-01-16T02:00:35;100506.81;;;-0.60;100.00
67931;BME280;63902;52.000;5.954;2024-01-16T02:01:36;100492.03;;;-0.62;100.00
67931;BME280;63902;52.000;5.954;2024-01-16T02:02:37;100497.25;;;-0.62;100.00
67931;BME280;63902;52.000;5.954;2024-01-16T02:03:41;100446.06;;;-0.94;100.00
67931;BME280;63902;52.000;5.954;2024-01-16T02:04:43;100501.59;;;-0.63;100.00
67931;BME280;63902;52.000;5.954;2024-01-16T02:05:44;100490.31;;;-0.66;100.00
67931;BME280;63902;52.000;5.954;2024-01-16T02:06:45;100493.78;;;-0.64;100.00
67931;BME280;63902;52.000;5.954;2024-01-16T02:07:46;100497.25;;;-0.65;100.00
67931;BME280;63902;52.000;5.954;2024-01-16T02:08:46;100506.78;;;-0.64;100.00
67931;BME280;63902;52.000;5.954;2024-01-16T02:09:47;100458.19;;;-0.90;100.00
67931;BME280;63902;52.000;5.954;2024-01-16T02:10:49;100506.81;;;-0.66;100.00
67931;BME280;63902;52.000;5.954;2024-01-16T02:11:51;100493.78;;;-0.68;100.00
67931;BME280;63902;52.000;5.954;2024-01-16T02:12:52;100479.06;;;-0.81;100.00
67931;BME280;63902;52.000;5.954;2024-01-16T02:13:52;100499.00;;;-0.66;100.00
67931;BME280;63902;52.000;5.954;2024-01-16T02:14:53;100489.44;;;-0.65;100.00
67931;BME280;63902;52.000;5.954;2024-01-16T02:15:53;100491.19;;;-0.66;100.00
67931;BME280;63902;52.000;5.954;2024-01-16T02:16:53;100495.53;;;-0.66;100.00
67931;BME280;63902;52.000;5.954;2024-01-16T02:17:54;100496.38;;;-0.68;100.00
67931;BME280;63902;52.000;5.954;2024-01-16T02:18:54;100498.13;;;-0.68;100.00
67931;BME280;63902;52.000;5.954;2024-01-16T02:19:55;100497.25;;;-0.69;100.00
67931;BME280;63902;52.000;5.954;2024-01-16T02:20:59;100492.91;;;-0.68;100.00
67931;BME280;63902;52.000;5.954;2024-01-16T02:22:04;100494.66;;;-0.70;100.00
67931;BME280;63902;52.000;5.954;2024-01-16T02:23:05;100486.84;;;-0.76;100.00
67931;BME280;63902;52.000;5.954;2024-01-16T02:24:10;100489.44;;;-0.70;100.00
67931;BME280;63902;52.000;5.954;2024-01-16T02:25:10;100433.06;;;-1.03;100.00
67931;BME280;63902;52.000;5.954;2024-01-16T02:26:11;100490.34;;;-0.70;100.00
67931;BME280;63902;52.000;5.954;2024-01-16T02:27:12;100469.50;;;-0.85;100.00
67931;BME280;63902;52.000;5.954;2024-01-16T02:28:12;100499.88;;;-0.69;100.00
67931;BME280;63902;52.000;5.954;2024-01-16T02:29:13;100493.81;;;-0.69;100.00
67931;BME280;63902;52.000;5.954;2024-01-16T02:30:13;100504.22;;;-0.69;100.00
67931;BME280;63902;52.000;5.954;2024-01-16T02:31:14;100502.47;;;-0.69;100.00
67931;BME280;63902;52.000;5.954;2024-01-16T02:32:15;100510.28;;;-0.69;100.00
67931;BME280;63902;52.000;5.954;2024-01-16T02:33:16;100505.97;;;-0.70;100.00
67931;BME280;63902;52.000;5.954;2024-01-16T02:34:16;100512.91;;;-0.69;100.00
67931;BME280;63902;52.000;5.954;2024-01-16T02:35:17;100505.06;;;-0.69;100.00
67931;BME280;63902;52.000;5.954;2024-01-16T02:36:17;100508.53;;;-0.68;100.00
67931;BME280;63902;52.000;5.954;2024-01-16T02:37:18;100506.81;;;-0.68;100.00
67931;BME280;63902;52.000;5.954;2024-01-16T02:38:18;100514.63;;;-0.68;100.00
67931;BME280;63902;52.000;5.954;2024-01-16T02:39:20;100519.84;;;-0.66;100.00
67931;BME280;63902;52.000;5.954;2024-01-16T02:40:20;100518.09;;;-0.65;100.00
67931;BME280;63902;52.000;5.954;2024-01-16T02:41:21;100510.28;;;-0.70;100.00
67931;BME280;63902;52.000;5.954;2024-01-16T02:42:21;100518.97;;;-0.63;100.00
67931;BME280;63902;52.000;5.954;2024-01-16T02:43:22;100519.84;;;-0.61;100.00
67931;BME280;63902;52.000;5.954;2024-01-16T02:44:22;100523.31;;;-0.62;100.00
67931;BME280;63902;52.000;5.954;2024-01-16T02:45:23;100519.84;;;-0.66;100.00
67931;BME280;63902;52.000;5.954;2024-01-16T02:46:23;100503.34;;;-0.73;100.00
67931;BME280;63902;52.000;5.954;2024-01-16T02:47:24;100524.19;;;-0.60;100.00
67931;BME280;63902;52.000;5.954;2024-01-16T02:48:24;100525.91;;;-0.59;100.00
67931;BME280;63902;52.000;5.954;2024-01-16T02:49:24;100514.63;;;-0.63;100.00
67931;BME280;63902;52.000;5.954;2024-01-16T02:50:25;100524.19;;;-0.57;100.00
67931;BME280;63902;52.000;5.954;2024-01-16T02:51:26;100531.09;;;-0.56;100.00
67931;BME280;63902;52.000;5.954;2024-01-16T02:52:26;100508.56;;;-0.66;100.00
67931;BME280;63902;52.000;5.954;2024-01-16T02:53:27;100508.56;;;-0.60;100.00
67931;BME280;63902;52.000;5.954;2024-01-16T02:54:28;100518.97;;;-0.53;100.00
67931;BME280;63902;52.000;5.954;2024-01-16T02:55:29;100514.63;;;-0.52;100.00
67931;BME280;63902;52.000;5.954;2024-01-16T02:56:29;100513.75;;;-0.50;100.00
67931;BME280;63902;52.000;5.954;2024-01-16T02:57:30;100499.00;;;-0.55;100.00
67931;BME280;63902;52.000;5.954;2024-01-16T02:58:30;100508.53;;;-0.48;100.00
67931;BME280;63902;52.000;5.954;2024-01-16T02:59:31;100511.16;;;-0.47;100.00
67931;BME280;63902;52.000;5.954;2024-01-16T03:00:31;100512.00;;;-0.46;100.00
67931;BME280;63902;52.000;5.954;2024-01-16T03:01:32;100501.59;;;-0.46;100.00
67931;BME280;63902;52.000;5.954;2024-01-16T03:02:32;100513.72;;;-0.45;100.00
67931;BME280;63902;52.000;5.954;2024-01-16T03:03:32;100509.41;;;-0.44;100.00
67931;BME280;63902;52.000;5.954;2024-01-16T03:04:33;100506.81;;;-0.44;100.00
67931;BME280;63902;52.000;5.954;2024-01-16T03:05:33;100502.47;;;-0.44;100.00
67931;BME280;63902;52.000;5.954;2024-01-16T03:06:34;100509.41;;;-0.43;100.00
67931;BME280;63902;52.000;5.954;2024-01-16T03:07:34;100509.41;;;-0.43;100.00
67931;BME280;63902;52.000;5.954;2024-01-16T03:08:35;100464.28;;;-0.73;100.00
67931;BME280;63902;52.000;5.954;2024-01-16T03:09:37;100517.22;;;-0.43;100.00
67931;BME280;63902;52.000;5.954;2024-01-16T03:10:37;100517.22;;;-0.41;100.00
67931;BME280;63902;52.000;5.954;2024-01-16T03:11:38;100519.84;;;-0.41;100.00
67931;BME280;63902;52.000;5.954;2024-01-16T03:12:38;100505.91;;;-0.45;100.00
67931;BME280;63902;52.000;5.954;2024-01-16T03:13:39;100510.28;;;-0.41;100.00
67931;BME280;63902;52.000;5.954;2024-01-16T03:14:39;100495.53;;;-0.50;100.00
67931;BME280;63902;52.000;5.954;2024-01-16T03:15:40;100491.19;;;-0.52;100.00
67931;BME280;63902;52.000;5.954;2024-01-16T03:16:40;100502.44;;;-0.46;100.00
67931;BME280;63902;52.000;5.954;2024-01-16T03:17:41;100503.31;;;-0.39;100.00
67931;BME280;63902;52.000;5.954;2024-01-16T03:18:41;100512.88;;;-0.38;100.00
67931;BME280;63902;52.000;5.954;2024-01-16T03:19:42;100501.56;;;-0.37;100.00
67931;BME280;63902;52.000;5.954;2024-01-16T03:20:43;100502.47;;;-0.36;100.00
67931;BME280;63902;52.000;5.954;2024-01-16T03:21:43;100491.16;;;-0.38;100.00
67931;BME280;63902;52.000;5.954;2024-01-16T03:22:44;100491.16;;;-0.40;100.00
67931;BME280;63902;52.000;5.954;2024-01-16T03:23:44;100495.50;;;-0.36;100.00
67931;BME280;63902;52.000;5.954;2024-01-16T03:24:46;100500.72;;;-0.36;100.00
67931;BME280;63902;52.000;5.954;2024-01-16T03:25:47;100498.09;;;-0.34;100.00
67931;BME280;63902;52.000;5.954;2024-01-16T03:26:47;100492.00;;;-0.35;100.00
67931;BME280;63902;52.000;5.954;2024-01-16T03:27:48;100485.09;;;-0.39;100.00
67931;BME280;63902;52.000;5.954;2024-01-16T03:28:48;100498.94;;;-0.34;100.00
67931;BME280;63902;52.000;5.954;2024-01-16T03:29:49;100505.06;;;-0.33;100.00
67931;BME280;63902;52.000;5.954;2024-01-16T03:30:49;100499.84;;;-0.33;100.00
67931;BME280;63902;52.000;5.954;2024-01-16T03:31:49;100499.84;;;-0.33;100.00
67931;BME280;63902;52.000;5.954;2024-01-16T03:32:50;100511.13;;;-0.33;100.00
67931;BME280;63902;52.000;5.954;2024-01-16T03:33:50;100488.53;;;-0.40;100.00
67931;BME280;63902;52.000;5.954;2024-01-16T03:34:51;100504.19;;;-0.31;100.00
67931;BME280;63902;52.000;5.954;2024-01-16T03:35:51;100504.19;;;-0.31;100.00
67931;BME280;63902;52.000;5.954;2024-01-16T03:36:52;100501.56;;;-0.34;100.00
67931;BME280;63902;52.000;5.954;2024-01-16T03:37:52;100501.59;;;-0.31;100.00
67931;BME280;63902;52.000;5.954;2024-01-16T03:38:55;100505.91;;;-0.30;100.00
67931;BME280;63902;52.000;5.954;2024-01-16T03:39:57;100497.22;;;-0.30;100.00
67931;BME280;63902;52.000;5.954;2024-01-16T03:40:57;100489.41;;;-0.33;100.00
67931;BME280;63902;52.000;5.954;2024-01-16T03:41:58;100502.41;;;-0.29;100.00
67931;BME280;63902;52.000;5.954;2024-01-16T03:42:58;100491.16;;;-0.32;100.00
67931;BME280;63902;52.000;5.954;2024-01-16T03:43:59;100497.22;;;-0.29;100.00
67931;BME280;63902;52.000;5.954;2024-01-16T03:44:59;100491.16;;;-0.28;100.00
67931;BME280;63902;52.000;5.954;2024-01-16T03:45:59;100493.75;;;-0.28;100.00
67931;BME280;63902;52.000;5.954;2024-01-16T03:47:00;100473.78;;;-0.38;100.00
67931;BME280;63902;52.000;5.954;2024-01-16T03:48:01;100434.75;;;-0.61;100.00
67931;BME280;63902;52.000;5.954;2024-01-16T03:49:02;100486.81;;;-0.36;100.00
67931;BME280;63902;52.000;5.954;2024-01-16T03:50:03;100459.03;;;-0.51;100.00
67931;BME280;63902;52.000;5.954;2024-01-16T03:51:04;100494.63;;;-0.27;100.00
67931;BME280;63902;52.000;5.954;2024-01-16T03:52:05;100498.97;;;-0.28;100.00
67931;BME280;63902;52.000;5.954;2024-01-16T03:53:05;100499.81;;;-0.27;100.00
67931;BME280;63902;52.000;5.954;2024-01-16T03:54:06;100506.75;;;-0.26;100.00
67931;BME280;63902;52.000;5.954;2024-01-16T03:55:08;100498.94;;;-0.26;100.00
67931;BME280;63902;52.000;5.954;2024-01-16T03:56:08;100500.69;;;-0.27;100.00
67931;BME280;63902;52.000;5.954;2024-01-16T03:57:09;100495.50;;;-0.33;100.00
67931;BME280;63902;52.000;5.954;2024-01-16T03:58:09;100501.56;;;-0.26;100.00
67931;BME280;63902;52.000;5.954;2024-01-16T03:59:10;100496.34;;;-0.28;100.00
67931;BME280;63902;52.000;5.954;2024-01-16T04:00:12;100503.28;;;-0.27;100.00
67931;BME280;63902;52.000;5.954;2024-01-16T04:01:12;100503.28;;;-0.27;100.00
67931;BME280;63902;52.000;5.954;2024-01-16T04:02:13;100495.50;;;-0.30;100.00
67931;BME280;63902;52.000;5.954;2024-01-16T04:03:13;100498.97;;;-0.28;100.00
67931;BME280;63902;52.000;5.954;2024-01-16T04:04:14;100497.22;;;-0.29;100.00
67931;BME280;63902;52.000;5.954;2024-01-16T04:05:15;100466.84;;;-0.47;100.00
67931;BME280;63902;52.000;5.954;2024-01-16T04:06:16;100504.19;;;-0.28;100.00
67931;BME280;63902;52.000;5.954;2024-01-16T04:07:16;100504.19;;;-0.28;100.00
67931;BME280;63902;52.000;5.954;2024-01-16T04:08:17;100512.00;;;-0.28;100.00
67931;BME280;63902;52.000;5.954;2024-01-16T04:09:17;100512.00;;;-0.28;100.00
67931;BME280;63902;52.000;5.954;2024-01-16T04:10:19;100506.78;;;-0.31;100.00
67931;BME280;63902;52.000;5.954;2024-01-16T04:11:20;100511.13;;;-0.30;100.00
67931;BME280;63902;52.000;5.954;2024-01-16T04:12:21;100509.38;;;-0.28;100.00
67931;BME280;63902;52.000;5.954;2024-01-16T04:13:21;100513.72;;;-0.27;100.00
67931;BME280;63902;52.000;5.954;2024-01-16T04:14:22;100515.47;;;-0.27;100.00
67931;BME280;63902;52.000;5.954;2024-01-16T04:15:22;100514.59;;;-0.26;100.00
67931;BME280;63902;52.000;5.954;2024-01-16T04:16:23;100517.19;;;-0.26;100.00
67931;BME280;63902;52.000;5.954;2024-01-16T04:17:23;100500.72;;;-0.33;100.00
67931;BME280;63902;52.000;5.954;2024-01-16T04:18:24;100507.63;;;-0.26;100.00
67931;BME280;63902;52.000;5.954;2024-01-16T04:19:24;100482.47;;;-0.40;100.00
67931;BME280;63902;52.000;5.954;2024-01-16T04:20:25;100510.25;;;-0.29;100.00
67931;BME280;63902;52.000;5.954;2024-01-16T04:21:25;100504.19;;;-0.31;100.00
67931;BME280;63902;52.000;5.954;2024-01-16T04:22:26;100518.06;;;-0.26;100.00
67931;BME280;63902;52.000;5.954;2024-01-16T04:23:26;100487.69;;;-0.40;100.00
67931;BME280;63902;52.000;5.954;2024-01-16T04:24:27;100511.13;;;-0.27;100.00
67931;BME280;63902;52.000;5.954;2024-01-16T04:25:28;100522.41;;;-0.25;100.00
67931;BME280;63902;52.000;5.954;2024-01-16T04:26:29;100525.88;;;-0.19;100.00
67931;BME280;63902;52.000;5.954;2024-01-16T04:27:29;100518.06;;;-0.24;100.00
67931;BME280;63902;52.000;5.954;2024-01-16T04:28:30;100525.03;;;-0.25;100.00
67931;BME280;63902;52.000;5.954;2024-01-16T04:29:30;100529.34;;;-0.19;100.00
67931;BME280;63902;52.000;5.954;2024-01-16T04:30:31;100525.88;;;-0.18;100.00
67931;BME280;63902;52.000;5.954;2024-01-16T04:31:34;100525.00;;;-0.20;100.00
67931;BME280;63902;52.000;5.954;2024-01-16T04:32:38;100504.19;;;-0.28;100.00
67931;BME280;63902;52.000;5.954;2024-01-16T04:33:40;100525.00;;;-0.15;100.00
67931;BME280;63902;52.000;5.954;2024-01-16T04:34:40;100522.38;;;-0.15;100.00
67931;BME280;63902;52.000;5.954;2024-01-16T04:35:41;100523.28;;;-0.16;100.00
67931;BME280;63902;52.000;5.954;2024-01-16T04:36:41;100515.44;;;-0.21;100.00
67931;BME280;63902;52.000;5.954;2024-01-16T04:37:41;100518.03;;;-0.15;100.00
67931;BME280;63902;52.000;5.954;2024-01-16T04:38:42;100517.16;;;-0.15;100.00
67931;BME280;63902;52.000;5.954;2024-01-16T04:39:42;100516.28;;;-0.14;100.00
67931;BME280;63902;52.000;5.954;2024-01-16T04:40:44;100517.19;;;-0.14;100.00
67931;BME280;63902;52.000;5.954;2024-01-16T04:41:45;100512.84;;;-0.13;100.00
67931;BME280;63902;52.000;5.954;2024-01-16T04:42:45;100512.84;;;-0.13;100.00
67931;BME280;63902;52.000;5.954;2024-01-16T04:43:46;100511.94;;;-0.12;100.00
67931;BME280;63902;52.000;5.954;2024-01-16T04:44:46;100511.09;;;-0.13;100.00
67931;BME280;63902;52.000;5.954;2024-01-16T04:45:46;100510.22;;;-0.13;100.00
67931;BME280;63902;52.000;5.954;2024-01-16T04:46:47;100512.84;;;-0.13;100.00
67931;BME280;63902;52.000;5.954;2024-01-16T04:47:47;100502.41;;;-0.21;100.00
67931;BME280;63902;52.000;5.954;2024-01-16T04:48:48;100515.44;;;-0.13;100.00
67931;BME280;63902;52.000;5.954;2024-01-16T04:49:48;100489.41;;;-0.24;100.00
67931;BME280;63902;52.000;5.954;2024-01-16T04:50:49;100510.22;;;-0.15;100.00
67931;BME280;63902;52.000;5.954;2024-01-16T04:51:49;100503.25;;;-0.14;100.00
67931;BME280;63902;52.000;5.954;2024-01-16T04:52:50;100502.41;;;-0.13;100.00
67931;BME280;63902;52.000;5.954;2024-01-16T04:53:50;100508.47;;;-0.13;100.00
67931;BME280;63902;52.000;5.954;2024-01-16T04:54:50;100505.00;;;-0.13;100.00
67931;BME280;63902;52.000;5.954;2024-01-16T04:55:52;100508.47;;;-0.14;100.00
67931;BME280;63902;52.000;5.954;2024-01-16T04:56:53;100501.53;;;-0.15;100.00
67931;BME280;63902;52.000;5.954;2024-01-16T04:57:54;100498.91;;;-0.17;100.00
67931;BME280;63902;52.000;5.954;2024-01-16T04:58:54;100498.06;;;-0.17;100.00
67931;BME280;63902;52.000;5.954;2024-01-16T04:59:55;100492.84;;;-0.20;100.00
67931;BME280;63902;52.000;5.954;2024-01-16T05:00:55;100497.22;;;-0.19;100.00
67931;BME280;63902;52.000;5.954;2024-01-16T05:01:56;100499.81;;;-0.19;100.00
67931;BME280;63902;52.000;5.954;2024-01-16T05:02:56;100492.00;;;-0.19;100.00
67931;BME280;63902;52.000;5.954;2024-01-16T05:03:57;100488.53;;;-0.25;100.00
67931;BME280;63902;52.000;5.954;2024-01-16T05:04:57;100457.28;;;-0.40;100.00
67931;BME280;63902;52.000;5.954;2024-01-16T05:05:57;100492.00;;;-0.21;100.00
67931;BME280;63902;52.000;5.954;2024-01-16T05:06:58;100487.66;;;-0.27;100.00
67931;BME280;63902;52.000;5.954;2024-01-16T05:08:00;100489.41;;;-0.24;100.00
67931;BME280;63902;52.000;5.954;2024-01-16T05:09:01;100477.22;;;-0.31;100.00
67931;BME280;63902;52.000;5.954;2024-01-16T05:10:01;100496.34;;;-0.21;100.00
67931;BME280;63902;52.000;5.954;2024-01-16T05:11:03;100478.94;;;-0.23;100.00
67931;BME280;63902;52.000;5.954;2024-01-16T05:12:04;100488.53;;;-0.21;100.00
67931;BME280;63902;52.000;5.954;2024-01-16T05:13:05;100479.84;;;-0.25;100.00